Amba, Kentucky
Current Conditions -  °F | °C
As of 1:15 AM on Monday 22 Dec 2014 (Local Time) from KPBX Reporting Station
Scattered Clouds Scattered Clouds  
Wind Chill: 27°   Ceiling: Unl
Heat Index: 34°   Visibility: 10mi
Dew Point: 28°   Wind: 8mph
Humidity: 78%   Direction: 130°SE
Pressure: 30.08"   Gusts: NA
Location:  37.4843°N, 82.6492°W
Report Text: KPBX 220615Z AUTO 13007KT 10SM SCT039 01/M02 A3008 RMK AO2 T00101025
Loading
Personal Weather Stations






























Interactive Weather Map New forecast layout! Learn more

10-Day Weather Forecast

Advertisements
Track Severe Weather on mobile